createdAt,value
2023-01-28T00:00:46.192Z,2.92
2023-01-28T00:03:12.853Z,3.00
2023-01-28T00:05:39.305Z,3.10
2023-01-28T00:08:05.800Z,3.20
2023-01-28T00:10:32.279Z,3.67
2023-01-28T00:12:58.777Z,3.40
2023-01-28T00:15:25.264Z,3.40
2023-01-28T00:17:51.734Z,4.07
2023-01-28T00:20:18.489Z,3.70
2023-01-28T00:22:44.924Z,3.83
2023-01-28T00:25:11.368Z,3.28
2023-01-28T00:27:37.795Z,3.17
2023-01-28T00:30:04.254Z,3.42
2023-01-28T00:32:30.701Z,3.40
2023-01-28T00:34:57.186Z,4.10
2023-01-28T00:37:23.625Z,3.30
2023-01-28T00:39:50.092Z,3.60
2023-01-28T00:42:16.764Z,3.72
2023-01-28T00:44:43.436Z,3.40
2023-01-28T00:47:10.042Z,3.58
2023-01-28T00:49:36.537Z,3.42
2023-01-28T00:52:02.988Z,3.83
2023-01-28T00:54:29.423Z,3.28
2023-01-28T00:56:55.902Z,3.67
2023-01-28T00:59:22.498Z,3.50
2023-01-28T01:01:49.058Z,3.33
2023-01-28T01:04:15.660Z,3.42
2023-01-28T01:06:42.108Z,3.55
2023-01-28T01:09:08.752Z,3.67
2023-01-28T01:11:35.291Z,3.33
2023-01-28T01:14:01.791Z,3.20
2023-01-28T01:16:28.244Z,3.67
2023-01-28T01:18:54.784Z,3.30
2023-01-28T01:21:21.303Z,3.22
2023-01-28T01:23:47.782Z,3.58
2023-01-28T01:26:14.253Z,3.42
2023-01-28T01:28:40.734Z,3.47
2023-01-28T01:31:07.286Z,3.00
2023-01-28T01:33:33.746Z,3.97
2023-01-28T01:36:00.279Z,3.30
2023-01-28T01:38:26.738Z,4.10
2023-01-28T01:40:53.226Z,3.40
2023-01-28T01:43:19.708Z,3.30
2023-01-28T01:45:46.181Z,3.45
2023-01-28T01:48:12.814Z,3.70
2023-01-28T01:50:39.253Z,4.00
2023-01-28T01:53:05.677Z,3.58
2023-01-28T01:55:32.193Z,3.55
2023-01-28T01:57:58.601Z,3.50
2023-01-28T02:00:25.034Z,3.38
2023-01-28T02:02:51.477Z,3.13
2023-01-28T02:05:18.258Z,2.80
2023-01-28T02:07:44.781Z,3.88
2023-01-28T02:10:11.193Z,3.83
2023-01-28T02:12:37.624Z,3.30
2023-01-28T02:15:04.008Z,3.25
2023-01-28T02:17:30.367Z,3.67
2023-01-28T02:19:56.789Z,3.65
2023-01-28T02:22:23.242Z,3.85
2023-01-28T02:24:49.624Z,4.00
2023-01-28T02:27:16.050Z,4.45
2023-01-28T02:29:42.417Z,4.50
2023-01-28T02:32:08.849Z,4.75
2023-01-28T02:34:35.315Z,5.88
2023-01-28T02:37:01.711Z,5.30
2023-01-28T02:39:28.131Z,5.53
2023-01-28T02:41:54.521Z,5.38
2023-01-28T02:44:20.948Z,6.47
2023-01-28T02:46:47.480Z,6.57
2023-01-28T02:49:13.857Z,6.43
2023-01-28T02:51:40.217Z,6.03
2023-01-28T02:54:06.664Z,6.90
2023-01-28T02:56:33.037Z,6.68
2023-01-28T02:58:59.482Z,6.90
2023-01-28T03:01:25.940Z,6.18
2023-01-28T03:03:52.344Z,6.43
2023-01-28T03:06:18.704Z,5.90
2023-01-28T03:08:45.121Z,5.85
2023-01-28T03:11:11.553Z,5.88
2023-01-28T03:13:38.024Z,5.63
2023-01-28T03:16:04.611Z,5.70
2023-01-28T03:18:31.100Z,6.65
2023-01-28T03:20:57.536Z,5.25
2023-01-28T03:23:23.955Z,5.35
2023-01-28T03:25:50.397Z,6.07
2023-01-28T03:28:16.798Z,5.20
2023-01-28T03:30:43.265Z,5.22
2023-01-28T03:33:09.732Z,4.30
2023-01-28T03:35:36.183Z,5.55
2023-01-28T03:38:02.578Z,5.53
2023-01-28T03:40:28.937Z,5.32
2023-01-28T03:42:55.307Z,5.97
2023-01-28T03:45:21.676Z,6.40
2023-01-28T03:47:48.049Z,4.63
2023-01-28T03:50:14.473Z,6.03
2023-01-28T03:52:40.990Z,5.78
2023-01-28T03:55:07.411Z,5.93
2023-01-28T03:57:33.841Z,5.65
2023-01-28T04:00:00.273Z,5.82
2023-01-28T04:02:26.726Z,6.32
2023-01-28T04:04:53.142Z,5.30
2023-01-28T04:07:19.559Z,5.30
2023-01-28T04:09:45.958Z,5.47
2023-01-28T04:12:12.337Z,5.43
2023-01-28T04:14:38.756Z,5.25
2023-01-28T04:17:05.185Z,4.78
2023-01-28T04:19:31.564Z,5.13
2023-01-28T04:21:57.946Z,5.47
2023-01-28T04:24:24.438Z,4.85
2023-01-28T04:26:50.877Z,5.45
2023-01-28T04:29:17.439Z,5.72
2023-01-28T04:31:43.908Z,5.22
2023-01-28T04:34:10.325Z,5.72
2023-01-28T04:36:36.705Z,6.07
2023-01-28T04:39:03.082Z,6.00
2023-01-28T04:41:29.508Z,6.05
2023-01-28T04:43:56.054Z,5.22
2023-01-28T04:46:22.547Z,6.55
2023-01-28T04:48:48.975Z,6.50
2023-01-28T04:51:15.378Z,7.32
2023-01-28T04:53:41.826Z,5.78
2023-01-28T04:56:08.201Z,6.45
2023-01-28T04:58:34.600Z,6.53
2023-01-28T05:01:01.010Z,6.47
2023-01-28T05:03:27.411Z,5.40
2023-01-28T05:05:53.781Z,6.25
2023-01-28T05:08:20.187Z,6.32
2023-01-28T05:10:46.689Z,6.30
2023-01-28T05:13:13.108Z,5.95
2023-01-28T05:15:39.533Z,6.28
2023-01-28T05:18:05.978Z,5.78
2023-01-28T05:20:32.422Z,6.05
2023-01-28T05:22:58.798Z,5.43
2023-01-28T05:25:25.211Z,5.95
2023-01-28T05:27:51.611Z,6.05
2023-01-28T05:30:17.968Z,5.78
2023-01-28T05:32:44.514Z,5.75
2023-01-28T05:35:10.978Z,6.25
2023-01-28T05:37:37.412Z,6.88
2023-01-28T05:40:03.803Z,6.18
2023-01-28T05:42:30.234Z,6.80
2023-01-28T05:44:56.658Z,5.82
2023-01-28T05:47:23.040Z,6.00
2023-01-28T05:49:49.508Z,6.38
2023-01-28T05:52:15.936Z,5.13
2023-01-28T05:54:42.309Z,6.10
2023-01-28T05:57:08.747Z,5.43
2023-01-28T05:59:35.120Z,5.35
2023-01-28T06:02:01.606Z,6.13
2023-01-28T06:04:28.067Z,6.15
2023-01-28T06:06:54.467Z,6.13
2023-01-28T06:09:20.845Z,5.85
2023-01-28T06:11:47.211Z,6.53
2023-01-28T06:14:13.604Z,6.50
2023-01-28T06:16:39.994Z,6.22
2023-01-28T06:19:06.372Z,5.97
2023-01-28T06:21:32.793Z,6.80
2023-01-28T06:23:59.280Z,6.35
2023-01-28T06:26:25.742Z,6.43
2023-01-28T06:28:52.110Z,6.63
2023-01-28T06:31:18.528Z,5.88
2023-01-28T06:33:44.939Z,6.32
2023-01-28T06:36:11.307Z,6.95
2023-01-28T06:38:37.687Z,6.72
2023-01-28T06:41:04.127Z,6.57
2023-01-28T06:43:30.537Z,6.90
2023-01-28T06:45:56.932Z,6.53
2023-01-28T06:48:23.329Z,6.15
2023-01-28T06:50:49.719Z,7.35
2023-01-28T06:53:16.091Z,6.90
2023-01-28T06:55:42.456Z,7.35
2023-01-28T06:58:08.847Z,7.35
2023-01-28T07:00:35.240Z,6.85
2023-01-28T07:03:01.810Z,6.25
2023-01-28T07:05:28.244Z,6.47
2023-01-28T07:07:54.671Z,7.18
2023-01-28T07:10:21.050Z,6.60
2023-01-28T07:12:47.475Z,7.13
2023-01-28T07:15:13.862Z,6.57
2023-01-28T07:17:40.232Z,6.50
2023-01-28T07:20:06.659Z,6.90
2023-01-28T07:22:33.097Z,6.60
2023-01-28T07:24:59.491Z,6.78
2023-01-28T07:27:25.918Z,6.82
2023-01-28T07:29:52.529Z,7.05
2023-01-28T07:32:18.955Z,6.25
2023-01-28T07:34:45.347Z,6.30
2023-01-28T07:37:11.776Z,6.97
2023-01-28T07:39:38.207Z,6.63
2023-01-28T07:42:04.637Z,6.85
2023-01-28T07:44:31.022Z,6.80
2023-01-28T07:46:57.473Z,6.15
2023-01-28T07:49:23.882Z,6.45
2023-01-28T07:51:50.267Z,6.53
2023-01-28T07:54:16.636Z,6.30
2023-01-28T07:56:43.004Z,6.93
2023-01-28T07:59:09.403Z,6.55
2023-01-28T08:01:35.843Z,6.45
2023-01-28T08:04:02.388Z,6.38
2023-01-28T08:06:28.902Z,6.38
2023-01-28T08:08:55.338Z,7.50
2023-01-28T08:11:21.764Z,7.25
2023-01-28T08:13:48.418Z,7.15
2023-01-28T08:16:14.933Z,7.78
2023-01-28T08:18:41.585Z,7.93
2023-01-28T08:21:08.019Z,8.73
2023-01-28T08:23:34.392Z,8.60
2023-01-28T08:26:00.788Z,7.72
2023-01-28T08:28:27.152Z,7.15
2023-01-28T08:30:53.641Z,7.55
2023-01-28T08:33:20.197Z,7.28
2023-01-28T08:35:46.646Z,7.45
2023-01-28T08:38:13.050Z,6.72
2023-01-28T08:40:39.501Z,6.78
2023-01-28T08:43:05.939Z,6.38
2023-01-28T08:45:32.367Z,7.10
2023-01-28T08:47:58.803Z,7.13
2023-01-28T08:50:25.173Z,7.20
2023-01-28T08:52:51.548Z,7.68
2023-01-28T08:55:17.944Z,6.95
2023-01-28T08:57:44.369Z,6.18
2023-01-28T09:00:10.774Z,6.72
2023-01-28T09:02:37.215Z,6.40
2023-01-28T09:05:03.594Z,6.00
2023-01-28T09:07:29.962Z,8.32
2023-01-28T09:09:56.427Z,7.85
2023-01-28T09:12:22.803Z,7.43
2023-01-28T09:14:49.181Z,7.65
2023-01-28T09:17:15.607Z,6.63
2023-01-28T09:19:41.989Z,6.65
2023-01-28T09:22:08.358Z,7.45
2023-01-28T09:24:35.006Z,7.40
2023-01-28T09:27:02.183Z,7.28
2023-01-28T09:29:28.614Z,6.85
2023-01-28T09:31:55.138Z,6.60
2023-01-28T09:34:21.552Z,7.50
2023-01-28T09:36:47.995Z,7.25
2023-01-28T09:39:14.468Z,6.60
2023-01-28T09:41:40.872Z,7.55
2023-01-28T09:44:07.296Z,8.20
2023-01-28T09:46:33.673Z,7.43
2023-01-28T09:49:00.099Z,5.35
2023-01-28T09:51:26.476Z,6.45
2023-01-28T09:53:52.909Z,5.93
2023-01-28T09:56:19.288Z,6.80
2023-01-28T09:58:45.707Z,6.45
2023-01-28T10:01:12.211Z,6.50
2023-01-28T10:03:38.655Z,6.15
2023-01-28T10:06:05.126Z,6.88
2023-01-28T10:08:31.568Z,8.15
2023-01-28T10:10:57.949Z,12.20
2023-01-28T10:13:24.372Z,8.60
2023-01-28T10:15:50.797Z,7.70
2023-01-28T10:18:18.518Z,7.90
2023-01-28T10:20:45.046Z,6.55
2023-01-28T10:23:11.448Z,6.35
2023-01-28T10:25:37.879Z,7.10
2023-01-28T10:28:04.281Z,6.22
2023-01-28T10:30:30.708Z,8.20
2023-01-28T10:32:57.092Z,22.38
2023-01-28T10:35:23.522Z,31.98
2023-01-28T10:37:49.909Z,27.80
2023-01-28T10:40:16.671Z,19.55
2023-01-28T10:42:43.209Z,13.35
2023-01-28T10:45:09.575Z,11.77
2023-01-28T10:47:36.014Z,10.02
2023-01-28T10:50:02.396Z,8.55
2023-01-28T10:52:28.823Z,7.03
2023-01-28T10:54:55.283Z,12.07
2023-01-28T10:57:21.709Z,10.82
2023-01-28T10:59:48.246Z,8.98
2023-01-28T11:02:14.661Z,8.10
2023-01-28T11:04:41.142Z,6.88
2023-01-28T11:07:07.577Z,6.40
2023-01-28T11:09:33.965Z,6.20
2023-01-28T11:12:00.395Z,5.75
2023-01-28T11:14:26.761Z,4.97
2023-01-28T11:16:53.301Z,5.03
2023-01-28T11:19:20.509Z,5.00
2023-01-28T11:21:46.938Z,5.05
2023-01-28T11:24:13.513Z,5.78
2023-01-28T11:26:39.924Z,4.78
2023-01-28T11:29:06.322Z,4.57
2023-01-28T11:31:32.706Z,5.65
2023-01-28T11:33:59.195Z,5.25
2023-01-28T11:36:25.609Z,4.70
2023-01-28T11:38:52.074Z,5.05
2023-01-28T11:41:18.716Z,4.80
2023-01-28T11:43:45.152Z,4.47
2023-01-28T11:46:11.744Z,4.65
2023-01-28T11:48:38.161Z,5.47
2023-01-28T11:51:04.599Z,4.50
2023-01-28T11:53:31.099Z,4.18
2023-01-28T11:55:57.552Z,4.55
2023-01-28T11:58:23.931Z,4.97
2023-01-28T12:00:50.311Z,4.68
2023-01-28T12:03:16.733Z,5.45
2023-01-28T12:05:43.173Z,5.50
2023-01-28T12:08:09.552Z,5.68
2023-01-28T12:10:35.989Z,6.28
2023-01-28T12:13:02.423Z,9.90
2023-01-28T12:15:28.858Z,11.65
2023-01-28T12:17:55.289Z,9.70
2023-01-28T12:20:21.733Z,7.78
2023-01-28T12:22:48.170Z,7.70
2023-01-28T12:25:14.542Z,7.40
2023-01-28T12:27:40.959Z,7.07
2023-01-28T12:30:07.371Z,6.88
2023-01-28T12:32:33.824Z,6.25
2023-01-28T12:35:00.211Z,7.38
2023-01-28T12:37:26.597Z,7.10
2023-01-28T12:39:53.035Z,6.95
2023-01-28T12:42:19.481Z,6.95
2023-01-28T12:44:45.918Z,6.57
2023-01-28T12:47:12.347Z,6.47
2023-01-28T12:49:38.724Z,7.22
2023-01-28T12:52:05.148Z,6.72
2023-01-28T12:54:31.585Z,5.43
2023-01-28T12:56:57.969Z,5.25
2023-01-28T12:59:24.404Z,5.05
2023-01-28T13:01:50.845Z,6.28
2023-01-28T13:04:17.279Z,5.90
2023-01-28T13:06:43.705Z,6.07
2023-01-28T13:09:10.128Z,6.00
2023-01-28T13:11:36.572Z,5.53
2023-01-28T13:14:02.959Z,5.03
2023-01-28T13:16:37.302Z,5.50
2023-01-28T13:19:04.378Z,4.68
2023-01-28T13:21:34.689Z,4.88
2023-01-28T13:24:06.473Z,4.18
2023-01-28T13:26:32.858Z,4.85
2023-01-28T13:28:59.296Z,4.53
2023-01-28T13:31:25.679Z,4.80
2023-01-28T13:33:52.050Z,4.85
2023-01-28T13:36:18.481Z,4.88
2023-01-28T13:38:44.921Z,5.05
2023-01-28T13:41:11.362Z,5.18
2023-01-28T13:43:37.815Z,5.93
2023-01-28T13:46:04.276Z,5.82
2023-01-28T13:48:30.687Z,6.03
2023-01-28T13:50:57.129Z,5.63
2023-01-28T13:53:23.500Z,5.55
2023-01-28T13:55:49.915Z,6.85
2023-01-28T13:58:16.296Z,6.43
2023-01-28T14:00:42.676Z,6.55
2023-01-28T14:03:09.040Z,10.55
2023-01-28T14:05:35.479Z,8.70
2023-01-28T14:08:01.913Z,7.82
2023-01-28T14:10:28.356Z,7.80
2023-01-28T14:12:54.815Z,7.30
2023-01-28T14:15:21.209Z,6.07
2023-01-28T14:17:47.738Z,6.10
2023-01-28T14:20:14.457Z,6.07
2023-01-28T14:22:40.943Z,5.78
2023-01-28T14:25:07.392Z,5.47
2023-01-28T14:27:33.839Z,5.65
2023-01-28T14:30:00.277Z,5.68
2023-01-28T14:32:26.728Z,6.75
2023-01-28T14:34:53.124Z,6.40
2023-01-28T14:37:19.536Z,7.15
2023-01-28T14:39:45.972Z,7.85
2023-01-28T14:42:13.834Z,6.35
2023-01-28T14:44:40.252Z,5.78
2023-01-28T14:47:06.692Z,5.90
2023-01-28T14:49:33.136Z,4.93
2023-01-28T14:51:59.578Z,4.80
2023-01-28T14:54:25.965Z,5.07
2023-01-28T14:56:52.351Z,5.47
2023-01-28T14:59:18.794Z,4.80
2023-01-28T15:01:45.317Z,5.35
2023-01-28T15:04:11.781Z,5.60
2023-01-28T15:06:38.152Z,4.95
2023-01-28T15:09:04.582Z,4.82
2023-01-28T15:11:30.959Z,4.80
2023-01-28T15:13:57.373Z,4.47
2023-01-28T15:16:23.772Z,3.83
2023-01-28T15:18:50.257Z,4.10
2023-01-28T15:21:16.686Z,4.22
2023-01-28T15:23:43.126Z,4.88
2023-01-28T15:26:09.603Z,4.60
2023-01-28T15:28:36.042Z,4.25
2023-01-28T15:31:02.539Z,4.13
2023-01-28T15:33:28.963Z,4.35
2023-01-28T15:35:55.393Z,5.00
2023-01-28T15:38:21.789Z,5.10
2023-01-28T15:40:48.203Z,5.63
2023-01-28T15:43:14.629Z,5.60
2023-01-28T15:45:41.036Z,5.57
2023-01-28T15:48:07.457Z,5.75
2023-01-28T15:50:33.894Z,5.82
2023-01-28T15:53:00.273Z,5.35
2023-01-28T15:55:26.671Z,5.28
2023-01-28T15:57:53.132Z,5.80
2023-01-28T16:00:19.651Z,5.35
2023-01-28T16:02:46.078Z,5.22
2023-01-28T16:05:12.509Z,5.53
2023-01-28T16:07:38.904Z,5.50
2023-01-28T16:10:05.273Z,5.78
2023-01-28T16:12:31.660Z,5.95
2023-01-28T16:14:58.062Z,5.65
2023-01-28T16:17:24.550Z,6.15
2023-01-28T16:19:50.980Z,7.20
2023-01-28T16:22:17.386Z,6.75
2023-01-28T16:24:43.807Z,6.85
2023-01-28T16:27:10.203Z,6.50
2023-01-28T16:29:36.582Z,5.97
2023-01-28T16:32:03.168Z,6.93
2023-01-28T16:34:29.630Z,6.43
2023-01-28T16:36:56.045Z,6.30
2023-01-28T16:39:22.506Z,6.03
2023-01-28T16:41:49.125Z,6.53
2023-01-28T16:44:15.597Z,6.95
2023-01-28T16:46:42.001Z,6.00
2023-01-28T16:49:08.451Z,6.63
2023-01-28T16:51:34.839Z,6.63
2023-01-28T16:54:01.261Z,5.90
2023-01-28T16:56:45.766Z,5.53
2023-01-28T16:59:12.599Z,5.93
2023-01-28T17:01:39.046Z,6.00
2023-01-28T17:04:05.431Z,5.63
2023-01-28T17:06:31.824Z,5.35
2023-01-28T17:08:58.269Z,6.05
2023-01-28T17:11:24.650Z,6.05
2023-01-28T17:13:51.032Z,6.03
2023-01-28T17:16:17.476Z,5.97
2023-01-28T17:18:43.898Z,6.22
2023-01-28T17:21:10.324Z,6.30
2023-01-28T17:23:36.718Z,6.10
2023-01-28T17:26:03.113Z,5.82
2023-01-28T17:28:29.480Z,6.20
2023-01-28T17:30:55.936Z,6.07
2023-01-28T17:33:22.350Z,7.38
2023-01-28T17:35:48.767Z,6.45
2023-01-28T17:38:15.295Z,6.65
2023-01-28T17:40:41.693Z,5.68
2023-01-28T17:43:08.128Z,6.40
2023-01-28T17:45:34.518Z,6.10
2023-01-28T17:48:00.981Z,6.20
2023-01-28T17:50:27.418Z,6.50
2023-01-28T17:52:53.861Z,6.53
2023-01-28T17:55:20.316Z,6.75
2023-01-28T17:57:46.730Z,6.50
2023-01-28T18:00:13.155Z,6.82
2023-01-28T18:02:39.766Z,6.60
2023-01-28T18:05:06.145Z,6.55
2023-01-28T18:07:32.559Z,6.63
2023-01-28T18:09:58.971Z,6.57
2023-01-28T18:12:25.419Z,6.57
2023-01-28T18:14:51.795Z,6.55
2023-01-28T18:17:18.245Z,6.78
2023-01-28T18:19:44.675Z,6.53
2023-01-28T18:22:11.123Z,6.82
2023-01-28T18:24:37.522Z,6.47
2023-01-28T18:27:03.895Z,7.10
2023-01-28T18:29:30.350Z,7.35
2023-01-28T18:31:56.837Z,8.18
2023-01-28T18:34:23.315Z,8.45
2023-01-28T18:36:49.759Z,8.95
2023-01-28T18:39:16.220Z,8.68
2023-01-28T18:41:42.623Z,8.25
2023-01-28T18:44:09.036Z,8.02
2023-01-28T18:46:35.457Z,8.65
2023-01-28T18:49:01.867Z,8.13
2023-01-28T18:51:30.480Z,7.10
2023-01-28T18:53:57.389Z,7.13
2023-01-28T18:56:23.793Z,8.23
2023-01-28T18:58:50.250Z,6.88
2023-01-28T19:01:16.746Z,7.60
2023-01-28T19:03:43.293Z,7.40
2023-01-28T19:06:09.682Z,7.80
2023-01-28T19:08:36.130Z,7.45
2023-01-28T19:11:02.594Z,8.60
2023-01-28T19:13:29.211Z,8.18
2023-01-28T19:15:55.625Z,7.60
2023-01-28T19:18:22.065Z,8.07
2023-01-28T19:20:48.672Z,7.65
2023-01-28T19:23:15.606Z,7.78
2023-01-28T19:25:42.080Z,7.68
2023-01-28T19:28:08.471Z,7.90
2023-01-28T19:30:34.870Z,8.55
2023-01-28T19:33:01.312Z,8.50
2023-01-28T19:35:27.711Z,7.75
2023-01-28T19:37:54.134Z,7.72
2023-01-28T19:40:20.572Z,7.65
2023-01-28T19:42:47.004Z,8.85
2023-01-28T19:45:13.379Z,8.82
2023-01-28T19:47:39.809Z,8.05
2023-01-28T19:50:06.250Z,8.18
2023-01-28T19:52:32.696Z,7.90
2023-01-28T19:54:59.196Z,8.77
2023-01-28T19:57:25.643Z,8.00
2023-01-28T19:59:52.061Z,7.68
2023-01-28T20:02:18.695Z,8.25
2023-01-28T20:04:59.674Z,8.93
2023-01-28T20:07:27.231Z,9.02
2023-01-28T20:09:53.671Z,9.93
2023-01-28T20:12:20.170Z,9.32
2023-01-28T20:14:46.625Z,8.80
2023-01-28T20:17:13.095Z,9.07
2023-01-28T20:19:39.525Z,10.10
2023-01-28T20:22:05.904Z,10.15
2023-01-28T20:24:32.401Z,10.40
2023-01-28T20:26:58.895Z,10.15
2023-01-28T20:29:25.334Z,10.27
2023-01-28T20:32:13.486Z,9.93
2023-01-28T20:34:38.230Z,9.90
2023-01-28T20:37:04.616Z,9.52
2023-01-28T20:39:30.995Z,9.82
2023-01-28T20:41:57.489Z,8.68
2023-01-28T20:44:23.877Z,8.98
2023-01-28T20:46:50.275Z,9.05
2023-01-28T20:49:16.717Z,9.30
2023-01-28T20:51:43.109Z,9.63
2023-01-28T20:54:09.548Z,9.25
2023-01-28T20:56:36.995Z,8.73
2023-01-28T20:59:03.429Z,8.43
2023-01-28T21:01:29.942Z,9.93
2023-01-28T21:03:56.396Z,9.95
2023-01-28T21:06:22.902Z,8.90
2023-01-28T21:08:49.582Z,8.65
2023-01-28T21:11:15.979Z,8.25
2023-01-28T21:13:42.404Z,7.95
2023-01-28T21:16:08.844Z,8.00
2023-01-28T21:18:35.240Z,9.10
2023-01-28T21:21:01.678Z,8.90
2023-01-28T21:23:28.071Z,9.32
2023-01-28T21:25:54.510Z,10.40
2023-01-28T21:28:20.920Z,10.07
2023-01-28T21:30:47.412Z,9.52
2023-01-28T21:33:13.805Z,9.82
2023-01-28T21:35:40.220Z,8.93
2023-01-28T21:38:06.668Z,9.15
2023-01-28T21:40:33.077Z,9.43
2023-01-28T21:42:59.511Z,8.55
2023-01-28T21:45:26.010Z,8.20
2023-01-28T21:47:52.632Z,8.38
2023-01-28T21:50:19.009Z,7.85
2023-01-28T21:52:45.453Z,9.02
2023-01-28T21:55:11.828Z,8.90
2023-01-28T21:57:38.249Z,8.32
2023-01-28T22:00:04.684Z,7.97
2023-01-28T22:02:31.137Z,8.23
2023-01-28T22:04:57.565Z,7.55
2023-01-28T22:07:23.937Z,7.78
2023-01-28T22:09:50.325Z,9.52
2023-01-28T22:12:16.775Z,8.85
2023-01-28T22:14:43.231Z,9.23
2023-01-28T22:17:09.748Z,8.68
2023-01-28T22:19:36.208Z,8.43
2023-01-28T22:22:02.640Z,8.63
2023-01-28T22:24:29.088Z,8.77
2023-01-28T22:26:55.588Z,9.23
2023-01-28T22:29:21.991Z,8.63
2023-01-28T22:31:48.698Z,8.13
2023-01-28T22:34:15.156Z,8.50
2023-01-28T22:36:41.546Z,7.80
2023-01-28T22:39:07.975Z,7.60
2023-01-28T22:41:34.359Z,7.88
2023-01-28T22:44:00.755Z,7.35
2023-01-28T22:46:27.218Z,7.40
2023-01-28T22:48:53.680Z,7.22
2023-01-28T22:51:20.152Z,8.15
2023-01-28T22:53:46.526Z,8.00
2023-01-28T22:56:12.895Z,7.65
2023-01-28T22:58:39.283Z,7.93
2023-01-28T23:01:05.692Z,7.25
2023-01-28T23:03:32.085Z,8.40
2023-01-28T23:05:58.461Z,8.20
2023-01-28T23:08:24.900Z,7.68
2023-01-28T23:10:51.322Z,7.95
2023-01-28T23:13:17.753Z,8.05
2023-01-28T23:15:44.137Z,8.43
2023-01-28T23:18:10.571Z,8.95
2023-01-28T23:20:37.014Z,7.60
2023-01-28T23:23:03.408Z,7.72
2023-01-28T23:25:29.824Z,7.65
2023-01-28T23:27:56.204Z,7.85
2023-01-28T23:30:22.633Z,7.40
2023-01-28T23:32:49.022Z,7.95
2023-01-28T23:35:15.407Z,7.80
2023-01-28T23:37:41.788Z,8.40
2023-01-28T23:40:08.218Z,7.95
2023-01-28T23:42:34.667Z,9.32
2023-01-28T23:45:01.124Z,8.88
2023-01-28T23:47:27.569Z,7.93
2023-01-28T23:49:53.992Z,7.82
2023-01-28T23:52:20.402Z,8.80
2023-01-28T23:54:46.847Z,8.10
2023-01-28T23:57:13.276Z,9.43
2023-01-28T23:59:39.683Z,8.63
